sensor_id;sensor_type;location;lat;lon;timestamp;P1;durP1;ratioP1;P2;durP2;ratioP2
78402;SDS011;67687;43.508;1.504;2023-09-07T00:00:00;4.13;;;2.10;;
78402;SDS011;67687;43.508;1.504;2023-09-07T00:02:32;4.32;;;2.20;;
78402;SDS011;67687;43.508;1.504;2023-09-07T00:04:59;4.68;;;2.08;;
78402;SDS011;67687;43.508;1.504;2023-09-07T00:07:26;4.60;;;2.15;;
78402;SDS011;67687;43.508;1.504;2023-09-07T00:09:53;4.63;;;2.30;;
78402;SDS011;67687;43.508;1.504;2023-09-07T00:12:19;4.78;;;2.25;;
78402;SDS011;67687;43.508;1.504;2023-09-07T00:14:46;5.25;;;2.38;;
78402;SDS011;67687;43.508;1.504;2023-09-07T00:17:13;4.13;;;2.05;;
78402;SDS011;67687;43.508;1.504;2023-09-07T00:19:41;5.07;;;2.40;;
78402;SDS011;67687;43.508;1.504;2023-09-07T00:22:08;3.47;;;1.83;;
78402;SDS011;67687;43.508;1.504;2023-09-07T00:24:35;4.20;;;2.25;;
78402;SDS011;67687;43.508;1.504;2023-09-07T00:27:01;4.50;;;2.20;;
78402;SDS011;67687;43.508;1.504;2023-09-07T00:29:30;4.05;;;2.13;;
78402;SDS011;67687;43.508;1.504;2023-09-07T00:31:57;5.35;;;2.28;;
78402;SDS011;67687;43.508;1.504;2023-09-07T00:34:24;3.83;;;2.10;;
78402;SDS011;67687;43.508;1.504;2023-09-07T00:36:52;4.50;;;2.28;;
78402;SDS011;67687;43.508;1.504;2023-09-07T00:39:19;4.93;;;2.40;;
78402;SDS011;67687;43.508;1.504;2023-09-07T00:41:46;4.68;;;2.30;;
78402;SDS011;67687;43.508;1.504;2023-09-07T00:44:12;4.20;;;2.15;;
78402;SDS011;67687;43.508;1.504;2023-09-07T00:46:39;6.30;;;2.57;;
78402;SDS011;67687;43.508;1.504;2023-09-07T00:49:06;4.10;;;1.98;;
78402;SDS011;67687;43.508;1.504;2023-09-07T00:51:33;4.25;;;2.22;;
78402;SDS011;67687;43.508;1.504;2023-09-07T00:54:01;5.65;;;1.98;;
78402;SDS011;67687;43.508;1.504;2023-09-07T00:56:28;3.97;;;2.35;;
78402;SDS011;67687;43.508;1.504;2023-09-07T00:58:55;6.07;;;2.17;;
78402;SDS011;67687;43.508;1.504;2023-09-07T01:01:24;4.63;;;2.25;;
78402;SDS011;67687;43.508;1.504;2023-09-07T01:03:51;4.53;;;2.10;;
78402;SDS011;67687;43.508;1.504;2023-09-07T01:06:20;4.45;;;2.30;;
78402;SDS011;67687;43.508;1.504;2023-09-07T01:08:49;3.58;;;1.90;;
78402;SDS011;67687;43.508;1.504;2023-09-07T01:11:19;5.27;;;2.10;;
78402;SDS011;67687;43.508;1.504;2023-09-07T01:13:48;3.88;;;2.20;;
78402;SDS011;67687;43.508;1.504;2023-09-07T01:16:15;5.40;;;2.47;;
78402;SDS011;67687;43.508;1.504;2023-09-07T01:18:42;4.18;;;2.15;;
78402;SDS011;67687;43.508;1.504;2023-09-07T01:21:09;4.00;;;2.17;;
78402;SDS011;67687;43.508;1.504;2023-09-07T01:23:39;4.30;;;2.13;;
78402;SDS011;67687;43.508;1.504;2023-09-07T01:26:08;4.78;;;2.20;;
78402;SDS011;67687;43.508;1.504;2023-09-07T01:28:36;4.15;;;2.35;;
78402;SDS011;67687;43.508;1.504;2023-09-07T01:31:03;4.00;;;2.40;;
78402;SDS011;67687;43.508;1.504;2023-09-07T01:33:30;4.03;;;2.15;;
78402;SDS011;67687;43.508;1.504;2023-09-07T01:35:57;5.10;;;2.43;;
78402;SDS011;67687;43.508;1.504;2023-09-07T01:38:25;3.88;;;2.28;;
78402;SDS011;67687;43.508;1.504;2023-09-07T01:40:53;4.28;;;2.28;;
78402;SDS011;67687;43.508;1.504;2023-09-07T01:43:20;4.40;;;2.50;;
78402;SDS011;67687;43.508;1.504;2023-09-07T01:45:47;3.85;;;2.08;;
78402;SDS011;67687;43.508;1.504;2023-09-07T01:48:13;4.67;;;2.57;;
78402;SDS011;67687;43.508;1.504;2023-09-07T01:50:40;3.95;;;2.28;;
78402;SDS011;67687;43.508;1.504;2023-09-07T01:53:07;4.82;;;2.35;;
78402;SDS011;67687;43.508;1.504;2023-09-07T01:55:34;4.95;;;2.25;;
78402;SDS011;67687;43.508;1.504;2023-09-07T01:58:03;5.82;;;2.20;;
78402;SDS011;67687;43.508;1.504;2023-09-07T02:00:30;4.63;;;2.30;;
78402;SDS011;67687;43.508;1.504;2023-09-07T02:02:58;4.13;;;2.20;;
78402;SDS011;67687;43.508;1.504;2023-09-07T02:05:25;4.18;;;2.30;;
78402;SDS011;67687;43.508;1.504;2023-09-07T02:07:52;4.10;;;2.20;;
78402;SDS011;67687;43.508;1.504;2023-09-07T02:10:19;5.25;;;2.50;;
78402;SDS011;67687;43.508;1.504;2023-09-07T02:12:45;4.70;;;2.40;;
78402;SDS011;67687;43.508;1.504;2023-09-07T02:15:13;4.93;;;2.67;;
78402;SDS011;67687;43.508;1.504;2023-09-07T02:17:40;5.57;;;2.53;;
78402;SDS011;67687;43.508;1.504;2023-09-07T02:20:10;4.97;;;2.17;;
78402;SDS011;67687;43.508;1.504;2023-09-07T02:22:37;4.28;;;2.30;;
78402;SDS011;67687;43.508;1.504;2023-09-07T02:25:04;4.00;;;2.30;;
78402;SDS011;67687;43.508;1.504;2023-09-07T02:27:32;4.82;;;2.60;;
78402;SDS011;67687;43.508;1.504;2023-09-07T02:29:59;4.65;;;2.50;;
78402;SDS011;67687;43.508;1.504;2023-09-07T02:32:28;5.25;;;2.55;;
78402;SDS011;67687;43.508;1.504;2023-09-07T02:34:55;3.90;;;2.35;;
78402;SDS011;67687;43.508;1.504;2023-09-07T02:37:22;4.97;;;2.43;;
78402;SDS011;67687;43.508;1.504;2023-09-07T02:39:50;6.43;;;2.13;;
78402;SDS011;67687;43.508;1.504;2023-09-07T02:42:16;4.85;;;2.40;;
78402;SDS011;67687;43.508;1.504;2023-09-07T02:44:43;4.95;;;2.42;;
78402;SDS011;67687;43.508;1.504;2023-09-07T02:47:10;4.22;;;2.25;;
78402;SDS011;67687;43.508;1.504;2023-09-07T02:49:38;4.60;;;2.50;;
78402;SDS011;67687;43.508;1.504;2023-09-07T02:52:05;4.65;;;2.30;;
78402;SDS011;67687;43.508;1.504;2023-09-07T02:54:32;4.55;;;2.20;;
78402;SDS011;67687;43.508;1.504;2023-09-07T02:56:59;4.35;;;2.40;;
78402;SDS011;67687;43.508;1.504;2023-09-07T02:59:26;5.53;;;2.45;;
78402;SDS011;67687;43.508;1.504;2023-09-07T03:01:52;4.97;;;2.20;;
78402;SDS011;67687;43.508;1.504;2023-09-07T03:04:19;4.07;;;2.25;;
78402;SDS011;67687;43.508;1.504;2023-09-07T03:06:47;5.43;;;2.55;;
78402;SDS011;67687;43.508;1.504;2023-09-07T03:09:14;5.03;;;2.20;;
78402;SDS011;67687;43.508;1.504;2023-09-07T03:11:41;5.10;;;2.50;;
78402;SDS011;67687;43.508;1.504;2023-09-07T03:14:08;5.57;;;2.53;;
78402;SDS011;67687;43.508;1.504;2023-09-07T03:16:35;4.20;;;2.40;;
78402;SDS011;67687;43.508;1.504;2023-09-07T03:19:01;5.47;;;2.40;;
78402;SDS011;67687;43.508;1.504;2023-09-07T03:21:28;4.78;;;2.58;;
78402;SDS011;67687;43.508;1.504;2023-09-07T03:23:57;4.03;;;2.20;;
78402;SDS011;67687;43.508;1.504;2023-09-07T03:26:24;4.17;;;2.27;;
78402;SDS011;67687;43.508;1.504;2023-09-07T03:28:50;5.63;;;2.40;;
78402;SDS011;67687;43.508;1.504;2023-09-07T03:31:17;4.25;;;2.42;;
78402;SDS011;67687;43.508;1.504;2023-09-07T03:33:44;4.40;;;2.30;;
78402;SDS011;67687;43.508;1.504;2023-09-07T03:36:11;4.22;;;2.35;;
78402;SDS011;67687;43.508;1.504;2023-09-07T03:38:39;4.27;;;2.07;;
78402;SDS011;67687;43.508;1.504;2023-09-07T03:41:07;4.55;;;2.53;;
78402;SDS011;67687;43.508;1.504;2023-09-07T03:43:34;4.88;;;2.38;;
78402;SDS011;67687;43.508;1.504;2023-09-07T03:46:00;6.32;;;2.60;;
78402;SDS011;67687;43.508;1.504;2023-09-07T03:48:27;4.05;;;2.40;;
78402;SDS011;67687;43.508;1.504;2023-09-07T03:50:54;4.50;;;2.20;;
78402;SDS011;67687;43.508;1.504;2023-09-07T03:53:21;4.22;;;2.40;;
78402;SDS011;67687;43.508;1.504;2023-09-07T03:55:47;4.90;;;2.50;;
78402;SDS011;67687;43.508;1.504;2023-09-07T03:58:16;4.30;;;2.17;;
78402;SDS011;67687;43.508;1.504;2023-09-07T04:00:43;4.03;;;2.45;;
78402;SDS011;67687;43.508;1.504;2023-09-07T04:03:10;4.77;;;2.30;;
78402;SDS011;67687;43.508;1.504;2023-09-07T04:05:37;4.60;;;2.45;;
78402;SDS011;67687;43.508;1.504;2023-09-07T04:08:04;4.25;;;2.25;;
78402;SDS011;67687;43.508;1.504;2023-09-07T04:10:31;4.78;;;2.25;;
78402;SDS011;67687;43.508;1.504;2023-09-07T04:12:58;4.05;;;2.03;;
78402;SDS011;67687;43.508;1.504;2023-09-07T04:15:26;5.40;;;2.50;;
78402;SDS011;67687;43.508;1.504;2023-09-07T04:17:53;4.30;;;2.13;;
78402;SDS011;67687;43.508;1.504;2023-09-07T04:20:20;5.68;;;2.45;;
78402;SDS011;67687;43.508;1.504;2023-09-07T04:22:47;4.57;;;2.40;;
78402;SDS011;67687;43.508;1.504;2023-09-07T04:25:14;4.20;;;2.30;;
78402;SDS011;67687;43.508;1.504;2023-09-07T04:27:41;4.07;;;2.43;;
78402;SDS011;67687;43.508;1.504;2023-09-07T04:30:08;3.90;;;2.38;;
78402;SDS011;67687;43.508;1.504;2023-09-07T04:32:36;4.80;;;2.53;;
78402;SDS011;67687;43.508;1.504;2023-09-07T04:35:04;4.25;;;2.22;;
78402;SDS011;67687;43.508;1.504;2023-09-07T04:37:31;4.68;;;2.35;;
78402;SDS011;67687;43.508;1.504;2023-09-07T04:39:58;5.00;;;2.27;;
78402;SDS011;67687;43.508;1.504;2023-09-07T04:42:25;4.72;;;2.17;;
78402;SDS011;67687;43.508;1.504;2023-09-07T04:44:51;4.45;;;2.28;;
78402;SDS011;67687;43.508;1.504;2023-09-07T04:47:18;4.53;;;2.50;;
78402;SDS011;67687;43.508;1.504;2023-09-07T04:49:49;5.30;;;2.38;;
78402;SDS011;67687;43.508;1.504;2023-09-07T04:52:16;5.37;;;2.60;;
78402;SDS011;67687;43.508;1.504;2023-09-07T04:54:43;5.00;;;2.33;;
78402;SDS011;67687;43.508;1.504;2023-09-07T04:57:10;4.20;;;2.10;;
78402;SDS011;67687;43.508;1.504;2023-09-07T04:59:37;4.15;;;2.35;;
78402;SDS011;67687;43.508;1.504;2023-09-07T05:02:04;4.28;;;2.25;;
78402;SDS011;67687;43.508;1.504;2023-09-07T05:04:30;4.50;;;2.43;;
78402;SDS011;67687;43.508;1.504;2023-09-07T05:06:58;4.15;;;2.50;;
78402;SDS011;67687;43.508;1.504;2023-09-07T05:09:25;4.75;;;2.42;;
78402;SDS011;67687;43.508;1.504;2023-09-07T05:11:54;4.35;;;2.30;;
78402;SDS011;67687;43.508;1.504;2023-09-07T05:14:21;5.28;;;2.83;;
78402;SDS011;67687;43.508;1.504;2023-09-07T05:16:47;5.07;;;2.60;;
78402;SDS011;67687;43.508;1.504;2023-09-07T05:19:14;5.63;;;2.80;;
78402;SDS011;67687;43.508;1.504;2023-09-07T05:21:41;5.43;;;2.90;;
78402;SDS011;67687;43.508;1.504;2023-09-07T05:24:09;7.50;;;4.95;;
78402;SDS011;67687;43.508;1.504;2023-09-07T05:26:39;8.27;;;4.70;;
78402;SDS011;67687;43.508;1.504;2023-09-07T05:29:05;8.37;;;4.70;;
78402;SDS011;67687;43.508;1.504;2023-09-07T05:31:32;6.18;;;3.40;;
78402;SDS011;67687;43.508;1.504;2023-09-07T05:33:59;6.72;;;2.92;;
78402;SDS011;67687;43.508;1.504;2023-09-07T05:36:26;4.93;;;2.47;;
78402;SDS011;67687;43.508;1.504;2023-09-07T05:38:53;5.15;;;2.40;;
78402;SDS011;67687;43.508;1.504;2023-09-07T05:41:21;5.53;;;2.83;;
78402;SDS011;67687;43.508;1.504;2023-09-07T05:43:48;6.03;;;2.78;;
78402;SDS011;67687;43.508;1.504;2023-09-07T05:46:15;4.55;;;2.50;;
78402;SDS011;67687;43.508;1.504;2023-09-07T05:48:43;6.38;;;2.50;;
78402;SDS011;67687;43.508;1.504;2023-09-07T05:51:10;4.47;;;2.40;;
78402;SDS011;67687;43.508;1.504;2023-09-07T05:53:38;4.63;;;2.50;;
78402;SDS011;67687;43.508;1.504;2023-09-07T05:56:05;5.13;;;2.60;;
78402;SDS011;67687;43.508;1.504;2023-09-07T05:58:33;4.28;;;2.60;;
78402;SDS011;67687;43.508;1.504;2023-09-07T06:01:00;6.38;;;2.60;;
78402;SDS011;67687;43.508;1.504;2023-09-07T06:03:27;5.38;;;2.88;;
78402;SDS011;67687;43.508;1.504;2023-09-07T06:05:54;5.03;;;2.53;;
78402;SDS011;67687;43.508;1.504;2023-09-07T06:08:21;3.80;;;2.40;;
78402;SDS011;67687;43.508;1.504;2023-09-07T06:10:47;4.78;;;2.83;;
78402;SDS011;67687;43.508;1.504;2023-09-07T06:13:14;6.18;;;2.67;;
78402;SDS011;67687;43.508;1.504;2023-09-07T06:15:42;5.00;;;2.58;;
78402;SDS011;67687;43.508;1.504;2023-09-07T06:18:09;5.00;;;2.47;;
78402;SDS011;67687;43.508;1.504;2023-09-07T06:20:36;4.80;;;2.70;;
78402;SDS011;67687;43.508;1.504;2023-09-07T06:23:03;4.50;;;2.55;;
78402;SDS011;67687;43.508;1.504;2023-09-07T06:25:30;4.53;;;2.70;;
78402;SDS011;67687;43.508;1.504;2023-09-07T06:27:57;4.80;;;2.67;;
78402;SDS011;67687;43.508;1.504;2023-09-07T06:30:23;5.63;;;2.80;;
78402;SDS011;67687;43.508;1.504;2023-09-07T06:32:53;6.75;;;2.80;;
78402;SDS011;67687;43.508;1.504;2023-09-07T06:35:21;5.68;;;2.60;;
78402;SDS011;67687;43.508;1.504;2023-09-07T06:37:48;5.53;;;2.80;;
78402;SDS011;67687;43.508;1.504;2023-09-07T06:40:14;5.60;;;2.95;;
78402;SDS011;67687;43.508;1.504;2023-09-07T06:42:43;5.93;;;2.83;;
78402;SDS011;67687;43.508;1.504;2023-09-07T06:45:09;5.45;;;2.65;;
78402;SDS011;67687;43.508;1.504;2023-09-07T06:47:36;4.55;;;2.70;;
78402;SDS011;67687;43.508;1.504;2023-09-07T06:50:05;4.82;;;2.60;;
78402;SDS011;67687;43.508;1.504;2023-09-07T06:52:32;4.97;;;2.88;;
78402;SDS011;67687;43.508;1.504;2023-09-07T06:54:59;4.77;;;2.90;;
78402;SDS011;67687;43.508;1.504;2023-09-07T06:57:26;5.80;;;2.40;;
78402;SDS011;67687;43.508;1.504;2023-09-07T06:59:53;5.93;;;2.50;;
78402;SDS011;67687;43.508;1.504;2023-09-07T07:02:20;5.47;;;2.60;;
78402;SDS011;67687;43.508;1.504;2023-09-07T07:04:46;4.43;;;2.60;;
78402;SDS011;67687;43.508;1.504;2023-09-07T07:07:15;6.80;;;2.80;;
78402;SDS011;67687;43.508;1.504;2023-09-07T07:09:41;4.78;;;2.90;;
78402;SDS011;67687;43.508;1.504;2023-09-07T07:12:08;4.53;;;2.85;;
78402;SDS011;67687;43.508;1.504;2023-09-07T07:14:35;4.40;;;2.45;;
78402;SDS011;67687;43.508;1.504;2023-09-07T07:17:02;4.85;;;2.60;;
78402;SDS011;67687;43.508;1.504;2023-09-07T07:19:30;4.60;;;2.27;;
78402;SDS011;67687;43.508;1.504;2023-09-07T07:21:57;8.00;;;2.67;;
78402;SDS011;67687;43.508;1.504;2023-09-07T07:24:25;4.40;;;2.67;;
78402;SDS011;67687;43.508;1.504;2023-09-07T07:26:51;5.90;;;2.60;;
78402;SDS011;67687;43.508;1.504;2023-09-07T07:29:18;5.93;;;2.30;;
78402;SDS011;67687;43.508;1.504;2023-09-07T07:31:45;5.70;;;2.63;;
78402;SDS011;67687;43.508;1.504;2023-09-07T07:34:12;4.47;;;2.20;;
78402;SDS011;67687;43.508;1.504;2023-09-07T07:36:38;6.03;;;2.90;;
78402;SDS011;67687;43.508;1.504;2023-09-07T07:39:05;3.72;;;2.33;;
78402;SDS011;67687;43.508;1.504;2023-09-07T07:41:34;5.38;;;2.88;;
78402;SDS011;67687;43.508;1.504;2023-09-07T07:44:02;4.70;;;2.50;;
78402;SDS011;67687;43.508;1.504;2023-09-07T07:46:30;5.05;;;2.60;;
78402;SDS011;67687;43.508;1.504;2023-09-07T07:48:56;5.82;;;2.58;;
78402;SDS011;67687;43.508;1.504;2023-09-07T07:51:23;4.18;;;2.47;;
78402;SDS011;67687;43.508;1.504;2023-09-07T07:53:51;5.65;;;2.92;;
78402;SDS011;67687;43.508;1.504;2023-09-07T07:56:20;7.00;;;2.60;;
78402;SDS011;67687;43.508;1.504;2023-09-07T07:58:48;5.10;;;2.53;;
78402;SDS011;67687;43.508;1.504;2023-09-07T08:01:15;5.50;;;2.80;;
78402;SDS011;67687;43.508;1.504;2023-09-07T08:03:42;6.28;;;2.65;;
78402;SDS011;67687;43.508;1.504;2023-09-07T08:06:09;6.05;;;2.60;;
78402;SDS011;67687;43.508;1.504;2023-09-07T08:08:37;4.80;;;2.60;;
78402;SDS011;67687;43.508;1.504;2023-09-07T08:11:04;4.10;;;2.40;;
78402;SDS011;67687;43.508;1.504;2023-09-07T08:13:31;5.28;;;2.83;;
78402;SDS011;67687;43.508;1.504;2023-09-07T08:16:00;5.53;;;2.35;;
78402;SDS011;67687;43.508;1.504;2023-09-07T08:18:27;5.45;;;2.83;;
78402;SDS011;67687;43.508;1.504;2023-09-07T08:20:55;4.73;;;2.47;;
78402;SDS011;67687;43.508;1.504;2023-09-07T08:23:22;4.57;;;2.63;;
78402;SDS011;67687;43.508;1.504;2023-09-07T08:25:50;5.40;;;2.80;;
78402;SDS011;67687;43.508;1.504;2023-09-07T08:28:17;4.22;;;2.42;;
78402;SDS011;67687;43.508;1.504;2023-09-07T08:30:44;5.10;;;2.67;;
78402;SDS011;67687;43.508;1.504;2023-09-07T08:33:12;4.07;;;2.30;;
78402;SDS011;67687;43.508;1.504;2023-09-07T08:35:39;4.95;;;2.35;;
78402;SDS011;67687;43.508;1.504;2023-09-07T08:38:09;4.53;;;2.38;;
78402;SDS011;67687;43.508;1.504;2023-09-07T08:40:36;4.57;;;2.60;;
78402;SDS011;67687;43.508;1.504;2023-09-07T08:43:06;4.63;;;2.60;;
78402;SDS011;67687;43.508;1.504;2023-09-07T08:45:37;4.50;;;2.73;;
78402;SDS011;67687;43.508;1.504;2023-09-07T08:48:07;4.72;;;2.50;;
78402;SDS011;67687;43.508;1.504;2023-09-07T08:50:36;5.90;;;2.40;;
78402;SDS011;67687;43.508;1.504;2023-09-07T08:53:04;5.32;;;2.30;;
78402;SDS011;67687;43.508;1.504;2023-09-07T08:55:32;5.00;;;2.88;;
78402;SDS011;67687;43.508;1.504;2023-09-07T08:58:00;4.83;;;2.33;;
78402;SDS011;67687;43.508;1.504;2023-09-07T09:00:26;6.45;;;3.00;;
78402;SDS011;67687;43.508;1.504;2023-09-07T09:02:55;4.25;;;2.25;;
78402;SDS011;67687;43.508;1.504;2023-09-07T09:05:23;5.03;;;2.30;;
78402;SDS011;67687;43.508;1.504;2023-09-07T09:08:01;5.05;;;2.58;;
78402;SDS011;67687;43.508;1.504;2023-09-07T09:10:29;5.30;;;2.67;;
78402;SDS011;67687;43.508;1.504;2023-09-07T09:12:56;5.00;;;2.70;;
78402;SDS011;67687;43.508;1.504;2023-09-07T09:15:24;5.75;;;2.50;;
78402;SDS011;67687;43.508;1.504;2023-09-07T09:17:51;4.70;;;2.53;;
78402;SDS011;67687;43.508;1.504;2023-09-07T09:20:22;6.55;;;2.67;;
78402;SDS011;67687;43.508;1.504;2023-09-07T09:22:50;4.43;;;2.63;;
78402;SDS011;67687;43.508;1.504;2023-09-07T09:25:19;5.65;;;2.40;;
78402;SDS011;67687;43.508;1.504;2023-09-07T09:27:46;4.75;;;2.60;;
78402;SDS011;67687;43.508;1.504;2023-09-07T09:30:14;4.75;;;2.53;;
78402;SDS011;67687;43.508;1.504;2023-09-07T09:32:41;4.85;;;2.50;;
78402;SDS011;67687;43.508;1.504;2023-09-07T09:35:08;4.20;;;2.30;;
78402;SDS011;67687;43.508;1.504;2023-09-07T09:37:42;5.25;;;2.60;;
78402;SDS011;67687;43.508;1.504;2023-09-07T09:40:11;4.22;;;2.50;;
78402;SDS011;67687;43.508;1.504;2023-09-07T09:42:40;5.45;;;2.70;;
78402;SDS011;67687;43.508;1.504;2023-09-07T09:45:08;4.28;;;2.80;;
78402;SDS011;67687;43.508;1.504;2023-09-07T09:47:35;7.47;;;2.60;;
78402;SDS011;67687;43.508;1.504;2023-09-07T09:50:05;4.72;;;2.40;;
78402;SDS011;67687;43.508;1.504;2023-09-07T09:52:33;4.50;;;2.75;;
78402;SDS011;67687;43.508;1.504;2023-09-07T09:55:01;5.63;;;3.13;;
78402;SDS011;67687;43.508;1.504;2023-09-07T09:57:31;5.53;;;2.72;;
78402;SDS011;67687;43.508;1.504;2023-09-07T10:00:01;6.03;;;2.63;;
78402;SDS011;67687;43.508;1.504;2023-09-07T10:02:35;5.18;;;2.80;;
78402;SDS011;67687;43.508;1.504;2023-09-07T10:05:04;5.38;;;2.75;;
78402;SDS011;67687;43.508;1.504;2023-09-07T10:07:41;6.35;;;2.90;;
78402;SDS011;67687;43.508;1.504;2023-09-07T10:10:09;6.15;;;2.72;;
78402;SDS011;67687;43.508;1.504;2023-09-07T10:12:39;4.60;;;2.43;;
78402;SDS011;67687;43.508;1.504;2023-09-07T10:15:19;5.55;;;2.80;;
78402;SDS011;67687;43.508;1.504;2023-09-07T10:17:46;4.90;;;2.70;;
78402;SDS011;67687;43.508;1.504;2023-09-07T10:20:15;6.00;;;2.55;;
78402;SDS011;67687;43.508;1.504;2023-09-07T10:22:42;5.88;;;2.65;;
78402;SDS011;67687;43.508;1.504;2023-09-07T10:25:17;4.87;;;2.80;;
78402;SDS011;67687;43.508;1.504;2023-09-07T10:27:45;7.22;;;2.63;;
78402;SDS011;67687;43.508;1.504;2023-09-07T10:30:13;6.32;;;3.40;;
78402;SDS011;67687;43.508;1.504;2023-09-07T10:32:44;4.50;;;2.85;;
78402;SDS011;67687;43.508;1.504;2023-09-07T10:35:15;4.75;;;2.60;;
78402;SDS011;67687;43.508;1.504;2023-09-07T10:37:44;6.03;;;3.00;;
78402;SDS011;67687;43.508;1.504;2023-09-07T10:40:12;5.13;;;2.90;;
78402;SDS011;67687;43.508;1.504;2023-09-07T10:42:41;6.32;;;3.10;;
78402;SDS011;67687;43.508;1.504;2023-09-07T10:45:08;5.85;;;3.00;;
78402;SDS011;67687;43.508;1.504;2023-09-07T10:47:37;6.28;;;2.80;;
78402;SDS011;67687;43.508;1.504;2023-09-07T10:50:07;4.93;;;2.80;;
78402;SDS011;67687;43.508;1.504;2023-09-07T10:52:34;5.47;;;2.90;;
78402;SDS011;67687;43.508;1.504;2023-09-07T10:55:01;5.82;;;2.85;;
78402;SDS011;67687;43.508;1.504;2023-09-07T10:57:28;4.82;;;2.55;;
78402;SDS011;67687;43.508;1.504;2023-09-07T10:59:54;4.32;;;2.60;;
78402;SDS011;67687;43.508;1.504;2023-09-07T11:02:21;4.47;;;2.67;;
78402;SDS011;67687;43.508;1.504;2023-09-07T11:04:49;5.53;;;2.78;;
78402;SDS011;67687;43.508;1.504;2023-09-07T11:07:16;5.65;;;3.15;;
78402;SDS011;67687;43.508;1.504;2023-09-07T11:09:43;4.63;;;2.65;;
78402;SDS011;67687;43.508;1.504;2023-09-07T11:12:11;5.45;;;3.20;;
78402;SDS011;67687;43.508;1.504;2023-09-07T11:14:39;4.30;;;2.90;;
78402;SDS011;67687;43.508;1.504;2023-09-07T11:17:05;4.78;;;2.70;;
78402;SDS011;67687;43.508;1.504;2023-09-07T11:19:32;4.95;;;3.00;;
78402;SDS011;67687;43.508;1.504;2023-09-07T11:22:01;7.70;;;2.80;;
78402;SDS011;67687;43.508;1.504;2023-09-07T11:24:29;6.53;;;2.90;;
78402;SDS011;67687;43.508;1.504;2023-09-07T11:26:57;4.70;;;2.33;;
78402;SDS011;67687;43.508;1.504;2023-09-07T11:29:24;5.67;;;2.70;;
78402;SDS011;67687;43.508;1.504;2023-09-07T11:31:51;6.32;;;2.90;;
78402;SDS011;67687;43.508;1.504;2023-09-07T11:34:17;6.07;;;2.67;;
78402;SDS011;67687;43.508;1.504;2023-09-07T11:36:44;4.50;;;2.83;;
78402;SDS011;67687;43.508;1.504;2023-09-07T11:39:12;6.00;;;2.60;;
78402;SDS011;67687;43.508;1.504;2023-09-07T11:41:39;5.10;;;2.97;;
78402;SDS011;67687;43.508;1.504;2023-09-07T11:44:06;5.18;;;2.75;;
78402;SDS011;67687;43.508;1.504;2023-09-07T11:46:33;5.47;;;2.85;;
78402;SDS011;67687;43.508;1.504;2023-09-07T11:49:00;5.65;;;2.90;;
78402;SDS011;67687;43.508;1.504;2023-09-07T11:51:27;5.18;;;3.05;;
78402;SDS011;67687;43.508;1.504;2023-09-07T11:53:54;6.10;;;3.20;;
78402;SDS011;67687;43.508;1.504;2023-09-07T11:56:22;6.18;;;2.90;;
78402;SDS011;67687;43.508;1.504;2023-09-07T11:58:48;7.15;;;2.97;;
78402;SDS011;67687;43.508;1.504;2023-09-07T12:01:15;6.20;;;2.80;;
78402;SDS011;67687;43.508;1.504;2023-09-07T12:03:42;4.97;;;3.20;;
78402;SDS011;67687;43.508;1.504;2023-09-07T12:06:09;6.60;;;3.00;;
78402;SDS011;67687;43.508;1.504;2023-09-07T12:08:36;5.60;;;3.10;;
78402;SDS011;67687;43.508;1.504;2023-09-07T12:11:03;6.55;;;3.00;;
78402;SDS011;67687;43.508;1.504;2023-09-07T12:13:30;6.70;;;3.00;;
78402;SDS011;67687;43.508;1.504;2023-09-07T12:15:56;4.80;;;3.10;;
78402;SDS011;67687;43.508;1.504;2023-09-07T12:18:23;7.03;;;2.72;;
78402;SDS011;67687;43.508;1.504;2023-09-07T12:20:50;5.88;;;2.83;;
78402;SDS011;67687;43.508;1.504;2023-09-07T12:23:16;7.13;;;2.55;;
78402;SDS011;67687;43.508;1.504;2023-09-07T12:25:43;4.72;;;2.95;;
78402;SDS011;67687;43.508;1.504;2023-09-07T12:28:15;5.47;;;2.73;;
78402;SDS011;67687;43.508;1.504;2023-09-07T12:30:43;8.20;;;2.80;;
78402;SDS011;67687;43.508;1.504;2023-09-07T12:33:10;4.68;;;2.58;;
78402;SDS011;67687;43.508;1.504;2023-09-07T12:35:37;4.43;;;2.85;;
78402;SDS011;67687;43.508;1.504;2023-09-07T12:38:04;7.13;;;2.78;;
78402;SDS011;67687;43.508;1.504;2023-09-07T12:40:34;4.75;;;2.80;;
78402;SDS011;67687;43.508;1.504;2023-09-07T12:43:01;5.67;;;3.20;;
78402;SDS011;67687;43.508;1.504;2023-09-07T12:45:28;4.85;;;2.85;;
78402;SDS011;67687;43.508;1.504;2023-09-07T12:47:57;5.22;;;2.67;;
78402;SDS011;67687;43.508;1.504;2023-09-07T12:50:25;5.18;;;2.80;;
78402;SDS011;67687;43.508;1.504;2023-09-07T12:52:52;5.57;;;2.58;;
78402;SDS011;67687;43.508;1.504;2023-09-07T12:55:20;6.00;;;2.80;;
78402;SDS011;67687;43.508;1.504;2023-09-07T12:57:47;5.70;;;2.87;;
78402;SDS011;67687;43.508;1.504;2023-09-07T13:00:14;5.28;;;2.50;;
78402;SDS011;67687;43.508;1.504;2023-09-07T13:02:41;5.38;;;2.70;;
78402;SDS011;67687;43.508;1.504;2023-09-07T13:05:09;4.95;;;2.85;;
78402;SDS011;67687;43.508;1.504;2023-09-07T13:07:36;5.53;;;2.80;;
78402;SDS011;67687;43.508;1.504;2023-09-07T13:10:03;7.73;;;3.00;;
78402;SDS011;67687;43.508;1.504;2023-09-07T13:12:30;5.87;;;2.67;;
78402;SDS011;67687;43.508;1.504;2023-09-07T13:14:57;6.22;;;2.55;;
78402;SDS011;67687;43.508;1.504;2023-09-07T13:17:24;4.72;;;3.00;;
78402;SDS011;67687;43.508;1.504;2023-09-07T13:19:51;4.93;;;2.75;;
78402;SDS011;67687;43.508;1.504;2023-09-07T13:22:19;5.40;;;2.78;;
78402;SDS011;67687;43.508;1.504;2023-09-07T13:24:45;5.93;;;2.80;;
78402;SDS011;67687;43.508;1.504;2023-09-07T13:27:12;9.03;;;2.90;;
78402;SDS011;67687;43.508;1.504;2023-09-07T13:29:39;4.70;;;2.72;;
78402;SDS011;67687;43.508;1.504;2023-09-07T13:32:06;7.35;;;2.50;;
78402;SDS011;67687;43.508;1.504;2023-09-07T13:34:32;4.55;;;2.92;;
78402;SDS011;67687;43.508;1.504;2023-09-07T13:36:59;6.97;;;2.85;;
78402;SDS011;67687;43.508;1.504;2023-09-07T13:39:27;4.37;;;2.40;;
78402;SDS011;67687;43.508;1.504;2023-09-07T13:41:54;6.30;;;2.80;;
78402;SDS011;67687;43.508;1.504;2023-09-07T13:44:20;5.30;;;2.50;;
78402;SDS011;67687;43.508;1.504;2023-09-07T13:46:47;4.85;;;2.65;;
78402;SDS011;67687;43.508;1.504;2023-09-07T13:49:14;6.35;;;2.60;;
78402;SDS011;67687;43.508;1.504;2023-09-07T13:51:41;4.75;;;2.63;;
78402;SDS011;67687;43.508;1.504;2023-09-07T13:54:08;4.53;;;2.70;;
78402;SDS011;67687;43.508;1.504;2023-09-07T13:56:36;6.27;;;2.57;;
78402;SDS011;67687;43.508;1.504;2023-09-07T13:59:03;6.38;;;2.95;;
78402;SDS011;67687;43.508;1.504;2023-09-07T14:01:30;4.78;;;2.55;;
78402;SDS011;67687;43.508;1.504;2023-09-07T14:03:57;5.70;;;2.83;;
78402;SDS011;67687;43.508;1.504;2023-09-07T14:06:24;5.80;;;2.72;;
78402;SDS011;67687;43.508;1.504;2023-09-07T14:08:51;4.30;;;2.83;;
78402;SDS011;67687;43.508;1.504;2023-09-07T14:11:18;5.05;;;2.83;;
78402;SDS011;67687;43.508;1.504;2023-09-07T14:13:46;5.10;;;2.53;;
78402;SDS011;67687;43.508;1.504;2023-09-07T14:16:16;5.07;;;2.75;;
78402;SDS011;67687;43.508;1.504;2023-09-07T14:18:43;5.13;;;3.15;;
78402;SDS011;67687;43.508;1.504;2023-09-07T14:21:10;4.43;;;2.80;;
78402;SDS011;67687;43.508;1.504;2023-09-07T14:23:37;8.27;;;2.90;;
78402;SDS011;67687;43.508;1.504;2023-09-07T14:26:03;5.35;;;2.50;;
78402;SDS011;67687;43.508;1.504;2023-09-07T14:28:30;5.93;;;2.72;;
78402;SDS011;67687;43.508;1.504;2023-09-07T14:30:58;5.45;;;2.75;;
78402;SDS011;67687;43.508;1.504;2023-09-07T14:33:28;5.13;;;2.90;;
78402;SDS011;67687;43.508;1.504;2023-09-07T14:35:55;4.70;;;2.87;;
78402;SDS011;67687;43.508;1.504;2023-09-07T14:38:21;5.63;;;2.70;;
78402;SDS011;67687;43.508;1.504;2023-09-07T14:40:51;4.10;;;2.47;;
78402;SDS011;67687;43.508;1.504;2023-09-07T14:43:20;5.55;;;3.00;;
78402;SDS011;67687;43.508;1.504;2023-09-07T14:45:48;5.15;;;2.63;;
78402;SDS011;67687;43.508;1.504;2023-09-07T14:48:16;3.97;;;2.58;;